Time;durP1;ratioP1;P1;durP2;ratioP2;P2;SDS_P1;SDS_P2;PMS_P1;PMS_P2;Temp;Humidity;BMP_temperature;BMP_pressure;BME280_temperature;BME280_humidity;BME280_pressure;Samples;Min_cycle;Max_cycle;Signal;HPM_P1;HPM_P2
2023/07/23 00:01:22;;;;;;;6.35;5.15;;;22.80;99.90;;;;;;5087628;28;20056;-75
2023/07/23 00:03:48;;;;;;;8.27;5.55;;;22.80;99.90;;;;;;5081569;28;20040;-76
2023/07/23 00:06:14;;;;;;;6.40;5.22;;;22.80;99.90;;;;;;5085229;28;20028;-76
2023/07/23 00:08:39;;;;;;;7.75;5.35;;;22.80;99.90;;;;;;5081668;28;20514;-76
2023/07/23 00:11:05;;;;;;;7.60;5.38;;;22.70;99.90;;;;;;5087833;28;20032;-76
2023/07/23 00:13:31;;;;;;;7.15;5.35;;;22.80;99.90;;;;;;5081393;28;20093;-76
2023/07/23 00:15:57;;;;;;;9.35;5.40;;;22.80;99.90;;;;;;5085175;28;20103;-76
2023/07/23 00:18:22;;;;;;;8.20;5.55;;;22.80;99.90;;;;;;5062623;28;20397;-76
2023/07/23 00:20:48;;;;;;;7.90;5.22;;;22.70;99.90;;;;;;5084740;28;20125;-76
2023/07/23 00:23:14;;;;;;;7.03;5.85;;;22.70;99.90;;;;;;5087572;28;20032;-75
2023/07/23 00:25:40;;;;;;;7.43;5.55;;;22.70;99.90;;;;;;5081500;28;20077;-76
2023/07/23 00:28:06;;;;;;;5.97;5.43;;;22.70;99.90;;;;;;5084477;28;20059;-76
2023/07/23 00:30:32;;;;;;;8.40;5.65;;;22.60;99.90;;;;;;5083010;28;20020;-75
2023/07/23 00:32:57;;;;;;;6.35;5.75;;;22.60;99.90;;;;;;5085461;28;20043;-76
2023/07/23 00:35:23;;;;;;;5.57;5.07;;;22.50;99.90;;;;;;5084001;28;20096;-76
2023/07/23 00:37:49;;;;;;;6.25;5.20;;;22.50;99.90;;;;;;5081616;28;20390;-75
2023/07/23 00:40:15;;;;;;;7.85;5.53;;;22.40;99.90;;;;;;5086806;28;20055;-75
2023/07/23 00:42:40;;;;;;;8.27;5.45;;;22.50;99.90;;;;;;5083569;28;20111;-76
2023/07/23 00:45:06;;;;;;;5.85;4.35;;;22.50;99.90;;;;;;5083430;28;20144;-76
2023/07/23 00:47:32;;;;;;;5.88;5.38;;;22.50;99.90;;;;;;5080313;28;20032;-76
2023/07/23 00:49:58;;;;;;;8.88;5.00;;;22.50;99.90;;;;;;5086948;28;20116;-76
2023/07/23 00:52:24;;;;;;;5.93;5.03;;;22.40;99.90;;;;;;5081643;28;20035;-76
2023/07/23 00:54:50;;;;;;;12.52;5.65;;;22.40;99.90;;;;;;5086093;28;20104;-76
2023/07/23 00:57:16;;;;;;;6.82;5.13;;;22.40;99.90;;;;;;5081862;28;20547;-76
2023/07/23 00:59:42;;;;;;;5.50;5.00;;;22.40;99.90;;;;;;5084166;28;20028;-76
2023/07/23 01:02:08;;;;;;;5.65;5.00;;;22.40;99.90;;;;;;5082858;28;20086;-76
2023/07/23 01:04:35;;;;;;;9.75;5.38;;;22.50;99.90;;;;;;5081902;28;20085;-75
2023/07/23 01:07:05;;;;;;;8.93;5.28;;;22.40;99.90;;;;;;5083929;28;20419;-76
2023/07/23 01:09:31;;;;;;;5.68;5.18;;;22.40;99.90;;;;;;5083944;28;20024;-75
2023/07/23 01:11:58;;;;;;;6.40;5.00;;;22.40;99.90;;;;;;5085306;28;20366;-75
2023/07/23 01:14:24;;;;;;;6.90;5.22;;;22.30;99.90;;;;;;5083920;28;20021;-75
2023/07/23 01:16:50;;;;;;;8.77;4.93;;;22.40;99.90;;;;;;5084666;28;20021;-76
2023/07/23 01:19:16;;;;;;;10.27;5.35;;;22.30;99.90;;;;;;5061034;28;20111;-75
2023/07/23 01:21:42;;;;;;;6.72;5.82;;;22.30;99.90;;;;;;5079938;28;20040;-75
2023/07/23 01:24:07;;;;;;;5.72;5.05;;;22.30;99.90;;;;;;5084205;28;20032;-75
2023/07/23 01:26:33;;;;;;;7.38;5.15;;;22.30;99.90;;;;;;5080567;28;20094;-76
2023/07/23 01:28:59;;;;;;;8.93;5.97;;;22.20;99.90;;;;;;5090017;28;20020;-76
2023/07/23 01:31:24;;;;;;;8.38;5.22;;;22.20;99.90;;;;;;5081184;28;20028;-76
2023/07/23 01:33:52;;;;;;;7.45;5.47;;;22.20;99.90;;;;;;5084596;28;20022;-76
2023/07/23 01:36:18;;;;;;;6.28;5.07;;;22.10;99.90;;;;;;5081217;28;20028;-75
2023/07/23 01:38:44;;;;;;;9.85;5.35;;;22.10;99.90;;;;;;5081010;28;20031;-75
2023/07/23 01:41:10;;;;;;;6.95;5.38;;;22.10;99.90;;;;;;5081204;28;20380;-76
2023/07/23 01:43:37;;;;;;;7.45;5.72;;;22.10;99.90;;;;;;5083396;28;20035;-76
2023/07/23 01:46:03;;;;;;;10.20;5.30;;;22.10;99.90;;;;;;5086423;28;20028;-76
2023/07/23 01:48:28;;;;;;;7.85;5.80;;;22.00;99.90;;;;;;5061340;28;20043;-76
2023/07/23 01:50:54;;;;;;;8.02;5.57;;;22.00;99.90;;;;;;5081331;28;20078;-76
2023/07/23 01:53:20;;;;;;;7.25;4.82;;;22.00;99.90;;;;;;5085661;28;20102;-75
2023/07/23 01:55:45;;;;;;;5.88;5.32;;;22.00;99.90;;;;;;5081336;28;20036;-76
2023/07/23 01:58:11;;;;;;;7.32;5.38;;;22.00;99.90;;;;;;5079880;28;20024;-76
2023/07/23 02:00:38;;;;;;;6.65;5.80;;;22.00;99.90;;;;;;5062879;28;20123;-75
2023/07/23 02:03:03;;;;;;;7.35;6.07;;;22.00;99.90;;;;;;5086238;28;20133;-76
2023/07/23 02:05:30;;;;;;;9.77;5.85;;;21.90;99.90;;;;;;5086157;28;20054;-76
2023/07/23 02:07:55;;;;;;;8.18;5.82;;;21.90;99.90;;;;;;5079068;28;20035;-76
2023/07/23 02:10:21;;;;;;;8.88;5.65;;;21.90;99.90;;;;;;5081691;28;20119;-76
2023/07/23 02:12:47;;;;;;;6.38;5.75;;;21.90;99.90;;;;;;5080827;28;20065;-76
2023/07/23 02:15:13;;;;;;;7.57;5.35;;;21.90;99.90;;;;;;5082509;28;20043;-76
2023/07/23 02:17:39;;;;;;;7.93;5.97;;;21.90;99.90;;;;;;5061564;28;20470;-75
2023/07/23 02:20:06;;;;;;;8.75;5.90;;;21.90;99.90;;;;;;5082001;28;20027;-76
2023/07/23 02:22:32;;;;;;;10.63;5.47;;;21.90;99.90;;;;;;5082362;28;20024;-76
2023/07/23 02:24:58;;;;;;;8.70;5.55;;;21.90;99.90;;;;;;5074381;28;20033;-76
2023/07/23 02:27:23;;;;;;;5.93;5.43;;;21.90;99.90;;;;;;5087149;28;20112;-76
2023/07/23 02:29:49;;;;;;;8.77;5.28;;;21.90;99.90;;;;;;5085810;28;20024;-76
2023/07/23 02:32:15;;;;;;;8.88;5.80;;;21.90;99.90;;;;;;5086050;28;20035;-76
2023/07/23 02:34:40;;;;;;;7.65;5.88;;;21.80;99.90;;;;;;5086840;28;20385;-76
2023/07/23 02:37:07;;;;;;;10.25;6.18;;;21.80;99.90;;;;;;5081751;28;20112;-76
2023/07/23 02:39:32;;;;;;;12.10;7.38;;;21.70;99.90;;;;;;5070490;28;20481;-75
2023/07/23 02:41:58;;;;;;;8.10;6.43;;;21.70;99.90;;;;;;5085862;28;20028;-76
2023/07/23 02:44:24;;;;;;;7.80;6.03;;;21.60;99.90;;;;;;5085231;28;20020;-76
2023/07/23 02:46:49;;;;;;;7.88;5.93;;;21.60;99.90;;;;;;5089066;28;20043;-75
2023/07/23 02:49:15;;;;;;;7.25;6.22;;;21.70;99.90;;;;;;5090257;28;20077;-76
2023/07/23 02:51:41;;;;;;;13.75;6.30;;;21.70;99.90;;;;;;5075652;28;20024;-76
2023/07/23 02:54:08;;;;;;;7.03;5.97;;;21.70;99.90;;;;;;5081590;28;20025;-75
2023/07/23 02:56:35;;;;;;;8.02;6.30;;;21.70;99.90;;;;;;5086391;28;20066;-76
2023/07/23 02:59:02;;;;;;;12.15;7.82;;;21.70;99.90;;;;;;5073340;28;20044;-75
2023/07/23 03:01:29;;;;;;;11.05;6.65;;;21.70;99.90;;;;;;5086264;28;20466;-76
2023/07/23 03:03:54;;;;;;;8.02;6.43;;;21.70;99.90;;;;;;5087665;28;20431;-76
2023/07/23 03:06:20;;;;;;;9.57;6.22;;;21.60;99.90;;;;;;5092738;28;20949;-76
2023/07/23 03:08:45;;;;;;;7.03;6.07;;;21.60;99.90;;;;;;5091491;28;20031;-75
2023/07/23 03:11:12;;;;;;;8.55;6.20;;;21.70;99.90;;;;;;5093499;28;20482;-76
2023/07/23 03:13:37;;;;;;;9.00;5.72;;;21.70;99.90;;;;;;5092439;28;20035;-76
2023/07/23 03:16:04;;;;;;;6.50;5.78;;;21.70;99.90;;;;;;5073526;28;20042;-75
2023/07/23 03:18:30;;;;;;;9.55;5.97;;;21.70;99.90;;;;;;5071848;28;20027;-76
2023/07/23 03:20:55;;;;;;;9.57;6.93;;;21.70;99.90;;;;;;5090356;28;20028;-75
2023/07/23 03:23:21;;;;;;;7.68;6.22;;;21.60;99.90;;;;;;5074313;28;20485;-76
2023/07/23 03:25:47;;;;;;;11.80;6.80;;;21.60;99.90;;;;;;5093569;28;20020;-76
2023/07/23 03:28:12;;;;;;;9.48;5.70;;;21.60;99.90;;;;;;5073401;28;20024;-76
2023/07/23 03:30:38;;;;;;;7.57;6.30;;;21.60;99.90;;;;;;5092328;28;20099;-76
2023/07/23 03:33:04;;;;;;;9.88;6.20;;;21.60;99.90;;;;;;5091987;28;20016;-76
2023/07/23 03:35:29;;;;;;;7.40;6.05;;;21.60;99.90;;;;;;5073046;28;20099;-75
2023/07/23 03:37:55;;;;;;;10.82;6.18;;;21.60;99.90;;;;;;5074537;28;20023;-76
2023/07/23 03:40:21;;;;;;;11.57;6.38;;;21.50;99.90;;;;;;5093111;28;20298;-76
2023/07/23 03:42:46;;;;;;;10.98;6.55;;;21.50;99.90;;;;;;5091166;28;20020;-76
2023/07/23 03:45:12;;;;;;;8.23;6.00;;;21.50;99.90;;;;;;5084978;28;20017;-75
2023/07/23 03:47:38;;;;;;;10.65;5.88;;;21.50;99.90;;;;;;5078653;28;20055;-76
2023/07/23 03:50:04;;;;;;;9.20;6.28;;;21.50;99.90;;;;;;5081079;28;20453;-75
2023/07/23 03:52:30;;;;;;;9.15;6.20;;;21.50;99.90;;;;;;5082568;28;20389;-76
2023/07/23 03:54:56;;;;;;;6.70;5.97;;;21.60;99.90;;;;;;5080961;28;20025;-75
2023/07/23 03:57:21;;;;;;;10.63;5.82;;;21.60;99.90;;;;;;5081134;28;20021;-76
2023/07/23 03:59:47;;;;;;;9.77;6.28;;;21.60;99.90;;;;;;5083318;28;20054;-76
2023/07/23 04:02:13;;;;;;;6.45;5.80;;;21.60;99.90;;;;;;5084629;28;20086;-76
2023/07/23 04:04:39;;;;;;;7.88;6.70;;;21.70;99.90;;;;;;5081311;28;20016;-76
2023/07/23 04:07:06;;;;;;;8.20;6.05;;;21.60;99.90;;;;;;5081680;28;20052;-76
2023/07/23 04:09:32;;;;;;;8.77;6.07;;;21.60;99.90;;;;;;5081002;28;20632;-76
2023/07/23 04:11:58;;;;;;;6.82;6.13;;;21.50;99.90;;;;;;5082082;28;20032;-75
2023/07/23 04:14:25;;;;;;;10.25;6.05;;;21.60;99.90;;;;;;5080798;28;20024;-76
2023/07/23 04:16:50;;;;;;;8.80;6.13;;;21.50;99.90;;;;;;5079283;28;20109;-76
2023/07/23 04:19:17;;;;;;;6.45;5.95;;;21.50;99.90;;;;;;5082764;28;20541;-76
2023/07/23 04:21:43;;;;;;;7.47;5.88;;;21.50;99.90;;;;;;5082876;28;20024;-76
2023/07/23 04:24:09;;;;;;;7.75;6.22;;;21.50;99.90;;;;;;5083068;28;20017;-75
2023/07/23 04:26:34;;;;;;;8.88;5.63;;;21.50;99.90;;;;;;5082872;28;20511;-75
2023/07/23 04:29:00;;;;;;;13.40;6.47;;;21.60;99.90;;;;;;5082599;28;20025;-76
2023/07/23 04:31:26;;;;;;;6.47;5.85;;;21.60;99.90;;;;;;5082840;28;20020;-76
2023/07/23 04:33:52;;;;;;;6.90;5.95;;;21.60;99.90;;;;;;5082887;28;20021;-76
2023/07/23 04:36:19;;;;;;;9.80;5.53;;;21.50;99.90;;;;;;5082998;28;20031;-76
2023/07/23 04:38:45;;;;;;;9.18;5.88;;;21.60;99.90;;;;;;5082639;28;20032;-75
2023/07/23 04:41:11;;;;;;;8.43;6.00;;;21.70;99.90;;;;;;5082660;28;20390;-75
2023/07/23 04:43:40;;;;;;;9.02;6.30;;;21.60;99.90;;;;;;5082413;28;20082;-75
2023/07/23 04:46:09;;;;;;;9.80;6.30;;;21.60;99.90;;;;;;5082818;28;20501;-76
2023/07/23 04:48:36;;;;;;;7.60;6.80;;;21.60;99.90;;;;;;5080379;28;20095;-76
2023/07/23 04:51:06;;;;;;;7.18;5.53;;;21.60;99.90;;;;;;5081655;28;20028;-75
2023/07/23 04:53:33;;;;;;;7.35;6.35;;;21.70;99.90;;;;;;5083399;28;20020;-76
2023/07/23 04:56:01;;;;;;;9.18;6.10;;;21.70;99.90;;;;;;5082227;28;20025;-76
2023/07/23 04:58:27;;;;;;;8.82;5.60;;;21.70;99.90;;;;;;5088058;28;20052;-75
2023/07/23 05:00:52;;;;;;;8.32;6.50;;;21.80;99.90;;;;;;5084171;28;20063;-76
2023/07/23 05:03:18;;;;;;;10.60;6.10;;;21.90;99.90;;;;;;5063195;28;20025;-76
2023/07/23 05:05:51;;;;;;;9.15;6.03;;;21.80;99.90;;;;;;5083319;28;20474;-75
2023/07/23 05:08:21;;;;;;;10.82;5.65;;;21.90;99.90;;;;;;5080166;28;20078;-75
2023/07/23 05:10:47;;;;;;;9.85;6.10;;;21.90;99.90;;;;;;5087894;28;20496;-75
2023/07/23 05:13:14;;;;;;;6.57;5.72;;;21.90;99.90;;;;;;5080176;28;20055;-75
2023/07/23 05:15:40;;;;;;;7.50;5.88;;;22.00;99.90;;;;;;5083614;28;20027;-76
2023/07/23 05:18:06;;;;;;;11.60;6.95;;;22.00;99.90;;;;;;5075501;28;20020;-76
2023/07/23 05:20:32;;;;;;;9.00;6.10;;;22.00;99.90;;;;;;5065531;28;20024;-75
2023/07/23 05:22:58;;;;;;;10.90;6.10;;;22.00;99.90;;;;;;5083723;28;20027;-76
2023/07/23 05:25:24;;;;;;;12.32;6.38;;;22.00;99.90;;;;;;5080105;28;20079;-75
2023/07/23 05:27:49;;;;;;;7.57;6.03;;;22.10;99.90;;;;;;5083758;28;20032;-76
2023/07/23 05:30:16;;;;;;;5.70;5.22;;;22.10;99.90;;;;;;5079706;28;20082;-77
2023/07/23 05:32:45;;;;;;;7.85;6.00;;;22.20;99.90;;;;;;5069843;28;20016;-76
2023/07/23 05:35:12;;;;;;;8.98;6.10;;;22.20;99.90;;;;;;5079889;28;20039;-76
2023/07/23 05:37:38;;;;;;;6.35;5.72;;;22.30;99.90;;;;;;5065060;28;20024;-76
2023/07/23 05:40:04;;;;;;;8.75;6.53;;;22.30;99.90;;;;;;5079868;28;20366;-75
2023/07/23 05:42:30;;;;;;;7.47;5.50;;;22.30;99.90;;;;;;5083369;28;20024;-76
2023/07/23 05:44:55;;;;;;;9.88;6.25;;;22.40;99.90;;;;;;5079624;28;20204;-76
2023/07/23 05:47:21;;;;;;;13.35;6.00;;;22.40;99.90;;;;;;5079542;28;20506;-76
2023/07/23 05:49:47;;;;;;;8.40;5.80;;;22.50;99.90;;;;;;5083407;28;20016;-76
2023/07/23 05:52:12;;;;;;;9.75;5.90;;;22.50;99.90;;;;;;5079247;28;20043;-75
2023/07/23 05:54:38;;;;;;;9.55;6.00;;;22.50;99.90;;;;;;5061576;28;20470;-76
2023/07/23 05:57:04;;;;;;;9.20;6.20;;;22.60;99.90;;;;;;5081513;28;20020;-76
2023/07/23 05:59:30;;;;;;;7.00;6.30;;;22.70;99.90;;;;;;5065054;28;20482;-76
2023/07/23 06:01:55;;;;;;;7.35;6.13;;;22.70;99.90;;;;;;5079550;28;20035;-76
2023/07/23 06:04:21;;;;;;;7.47;6.35;;;22.80;99.90;;;;;;5086726;28;20028;-76
2023/07/23 06:06:47;;;;;;;6.53;5.50;;;22.90;99.90;;;;;;5079834;28;20474;-75
2023/07/23 06:09:13;;;;;;;6.63;5.82;;;22.90;99.90;;;;;;5082635;28;20111;-76
2023/07/23 06:11:38;;;;;;;6.70;6.03;;;23.00;99.90;;;;;;5079925;28;20478;-76
2023/07/23 06:14:06;;;;;;;8.00;6.07;;;23.00;99.90;;;;;;5082258;28;20091;-76
2023/07/23 06:16:32;;;;;;;9.23;5.95;;;23.10;99.90;;;;;;5080058;28;20057;-75
2023/07/23 06:18:58;;;;;;;8.73;5.80;;;23.20;99.90;;;;;;5079230;28;20017;-75
2023/07/23 06:21:24;;;;;;;6.47;5.53;;;23.30;99.90;;;;;;5082340;28;20043;-76
2023/07/23 06:23:49;;;;;;;6.22;5.72;;;23.30;99.90;;;;;;5080019;28;20498;-76
2023/07/23 06:26:15;;;;;;;8.18;5.43;;;23.40;99.90;;;;;;5064272;28;20086;-76
2023/07/23 06:28:41;;;;;;;7.47;6.03;;;23.40;99.90;;;;;;5070050;28;20260;-76
2023/07/23 06:31:06;;;;;;;8.70;5.60;;;23.50;99.90;;;;;;5081844;28;20493;-76
2023/07/23 06:33:32;;;;;;;6.22;5.63;;;23.60;99.90;;;;;;5083052;28;20021;-76
2023/07/23 06:35:58;;;;;;;9.43;5.57;;;23.60;99.90;;;;;;5080437;28;20077;-76
2023/07/23 06:38:24;;;;;;;6.43;5.70;;;23.70;99.90;;;;;;5077985;28;20470;-76
2023/07/23 06:40:54;;;;;;;7.70;5.72;;;23.70;99.90;;;;;;5081392;28;20028;-76
2023/07/23 06:43:20;;;;;;;6.47;5.78;;;23.80;99.90;;;;;;5079925;28;20502;-76
2023/07/23 06:45:47;;;;;;;6.57;5.95;;;23.80;99.90;;;;;;5081678;28;20085;-76
2023/07/23 06:48:14;;;;;;;8.68;5.80;;;23.90;99.90;;;;;;5078542;28;20099;-76
2023/07/23 06:50:40;;;;;;;10.07;5.43;;;23.90;99.90;;;;;;5081981;28;20059;-76
2023/07/23 06:53:09;;;;;;;6.63;5.68;;;24.00;99.90;;;;;;5083444;28;20048;-76
2023/07/23 06:55:56;;;;;;;5.85;5.28;;;24.00;99.90;;;;;;5082236;28;20032;-76
2023/07/23 06:58:21;;;;;;;6.28;5.65;;;24.10;99.90;;;;;;5080600;28;20044;-76
2023/07/23 07:00:47;;;;;;;10.23;5.13;;;24.20;99.90;;;;;;5080896;28;20051;-76
2023/07/23 07:03:12;;;;;;;6.18;5.43;;;24.20;99.90;;;;;;5080727;28;20487;-76
2023/07/23 07:05:38;;;;;;;6.97;5.45;;;24.30;99.90;;;;;;5060550;28;20072;-76
2023/07/23 07:08:04;;;;;;;6.78;5.30;;;24.30;99.90;;;;;;5081440;28;20031;-76
2023/07/23 07:10:30;;;;;;;5.68;5.00;;;24.40;99.90;;;;;;5083686;28;20025;-76
2023/07/23 07:12:55;;;;;;;6.43;5.20;;;24.30;99.90;;;;;;5066754;28;20583;-76
2023/07/23 07:15:21;;;;;;;6.40;5.60;;;24.30;99.90;;;;;;5083678;28;20047;-75
2023/07/23 07:17:47;;;;;;;7.03;5.65;;;24.40;99.90;;;;;;5067833;28;20031;-76
2023/07/23 07:20:13;;;;;;;7.20;5.20;;;24.40;99.90;;;;;;5085956;28;20111;-76
2023/07/23 07:22:38;;;;;;;7.75;6.05;;;24.40;99.90;;;;;;5083458;28;20115;-76
2023/07/23 07:25:04;;;;;;;5.72;5.22;;;24.50;99.90;;;;;;5067150;28;20024;-76
2023/07/23 07:27:30;;;;;;;7.68;5.63;;;24.50;99.90;;;;;;5083002;28;20028;-76
2023/07/23 07:29:56;;;;;;;6.18;5.57;;;24.60;99.90;;;;;;5084874;28;20028;-76
2023/07/23 07:32:21;;;;;;;6.28;5.35;;;24.60;99.90;;;;;;5082741;28;20020;-76
2023/07/23 07:34:47;;;;;;;7.45;6.15;;;24.70;99.90;;;;;;5085465;28;20027;-77
2023/07/23 07:37:13;;;;;;;7.55;6.32;;;24.70;99.90;;;;;;5086275;28;20546;-76
2023/07/23 07:39:40;;;;;;;7.00;5.68;;;24.70;99.90;;;;;;5082227;28;20032;-76
2023/07/23 07:42:06;;;;;;;7.03;5.65;;;24.70;99.90;;;;;;5085187;28;20026;-76
2023/07/23 07:44:32;;;;;;;5.82;5.22;;;24.70;99.90;;;;;;5080894;28;20115;-76
2023/07/23 07:46:58;;;;;;;7.70;5.75;;;24.70;99.90;;;;;;5066134;28;20131;-76
2023/07/23 07:49:24;;;;;;;5.35;4.75;;;24.80;99.90;;;;;;5081888;28;20116;-76
2023/07/23 07:51:50;;;;;;;8.80;6.40;;;24.80;99.90;;;;;;5085328;28;20020;-76
2023/07/23 07:54:15;;;;;;;7.43;5.80;;;24.90;99.90;;;;;;5081813;28;20098;-76
2023/07/23 07:56:43;;;;;;;9.40;5.78;;;24.90;99.90;;;;;;5067300;28;20089;-76
2023/07/23 07:59:10;;;;;;;7.90;6.32;;;24.90;99.90;;;;;;5081703;28;20025;-76
2023/07/23 08:01:36;;;;;;;6.75;5.82;;;25.00;99.90;;;;;;5085160;28;20031;-76
2023/07/23 08:04:03;;;;;;;7.47;5.60;;;25.00;99.90;;;;;;5068789;28;20440;-76
2023/07/23 08:06:30;;;;;;;6.07;5.38;;;25.00;99.90;;;;;;5081918;28;20028;-76
2023/07/23 08:08:58;;;;;;;6.97;4.95;;;25.10;99.90;;;;;;5074714;28;20385;-76
2023/07/23 08:11:25;;;;;;;6.05;5.30;;;25.10;99.90;;;;;;5072417;28;20021;-76
2023/07/23 08:13:51;;;;;;;7.38;5.75;;;25.10;99.90;;;;;;5084265;28;20445;-76
2023/07/23 08:16:18;;;;;;;6.13;5.63;;;25.20;99.90;;;;;;5081240;28;20382;-76
2023/07/23 08:18:44;;;;;;;7.30;5.57;;;25.20;99.90;;;;;;5081108;28;20016;-76
2023/07/23 08:21:11;;;;;;;5.88;5.32;;;25.30;99.90;;;;;;5081834;28;20028;-76
2023/07/23 08:23:37;;;;;;;5.82;5.32;;;25.30;99.90;;;;;;5084166;28;20498;-76
2023/07/23 08:26:05;;;;;;;8.05;5.60;;;25.40;99.90;;;;;;5085798;28;20029;-76
2023/07/23 08:28:34;;;;;;;5.72;5.22;;;25.50;99.90;;;;;;5065600;28;20294;-77
2023/07/23 08:31:01;;;;;;;7.85;5.65;;;25.50;99.90;;;;;;5081769;28;20493;-76
2023/07/23 08:33:29;;;;;;;8.60;6.18;;;25.50;99.90;;;;;;5084901;28;20029;-76
2023/07/23 08:35:59;;;;;;;8.55;5.95;;;25.50;99.90;;;;;;5083256;28;20024;-76
2023/07/23 08:38:26;;;;;;;8.85;5.38;;;25.50;99.90;;;;;;5081038;28;20359;-76
2023/07/23 08:41:03;;;;;;;8.15;5.57;;;25.60;99.90;;;;;;5064800;28;20038;-76
2023/07/23 08:44:02;;;;;;;5.78;5.25;;;25.70;99.90;;;;;;5084288;28;20020;-76
2023/07/23 08:46:28;;;;;;;6.53;5.85;;;25.70;99.90;;;;;;5083869;28;20382;-76
2023/07/23 08:49:06;;;;;;;5.95;5.25;;;25.70;99.90;;;;;;5080373;28;20081;-76
2023/07/23 08:51:49;;;;;;;5.90;5.28;;;25.90;99.90;;;;;;5080877;28;20020;-76
2023/07/23 08:54:17;;;;;;;5.47;4.97;;;26.00;99.90;;;;;;5080413;28;20504;-77
2023/07/23 08:56:44;;;;;;;6.38;5.78;;;26.10;99.90;;;;;;5062609;28;20520;-76
2023/07/23 08:59:10;;;;;;;5.43;4.93;;;26.10;99.90;;;;;;5087437;28;20016;-76
2023/07/23 09:01:38;;;;;;;6.47;5.60;;;26.10;99.90;;;;;;5080376;28;20118;-76
2023/07/23 09:04:10;;;;;;;5.78;5.07;;;26.10;99.90;;;;;;5080491;28;20017;-77
2023/07/23 09:06:36;;;;;;;5.75;5.22;;;26.20;99.90;;;;;;5082924;28;20074;-77
2023/07/23 09:09:09;;;;;;;5.30;4.85;;;26.20;99.90;;;;;;5081343;28;20367;-76
2023/07/23 09:11:36;;;;;;;7.43;5.47;;;26.20;99.90;;;;;;5063942;28;20470;-76
2023/07/23 09:14:13;;;;;;;6.38;5.57;;;26.30;99.90;;;;;;5081783;28;20021;-76
2023/07/23 09:16:47;;;;;;;6.00;5.40;;;26.30;99.90;;;;;;5080392;28;20024;-76
2023/07/23 09:19:20;;;;;;;6.63;5.45;;;26.30;99.90;;;;;;5080472;28;20328;-76
2023/07/23 09:21:46;;;;;;;8.27;5.10;;;26.30;99.90;;;;;;5065618;28;20238;-76
2023/07/23 09:24:16;;;;;;;5.78;5.20;;;26.50;99.90;;;;;;5082385;28;20047;-76
2023/07/23 09:26:43;;;;;;;8.65;4.68;;;26.60;99.90;;;;;;5081878;28;20103;-77
2023/07/23 09:29:11;;;;;;;7.75;4.75;;;26.70;99.90;;;;;;5081661;28;20028;-77
2023/07/23 09:31:38;;;;;;;5.70;4.15;;;26.70;99.90;;;;;;5080049;28;20060;-76
2023/07/23 09:34:04;;;;;;;5.97;5.05;;;26.70;99.90;;;;;;5081699;28;20024;-76
2023/07/23 09:36:30;;;;;;;6.47;4.72;;;26.90;99.90;;;;;;5081739;28;20087;-76
2023/07/23 09:39:04;;;;;;;6.22;5.07;;;26.90;99.90;;;;;;5090914;28;20012;-76
2023/07/23 09:41:37;;;;;;;6.97;5.15;;;26.90;99.90;;;;;;5090445;28;20051;-76
2023/07/23 09:44:10;;;;;;;6.00;5.40;;;26.80;99.90;;;;;;5070242;28;20019;-76
2023/07/23 09:46:37;;;;;;;5.40;4.65;;;26.80;99.90;;;;;;5085930;28;20113;-76
2023/07/23 09:49:03;;;;;;;5.72;4.80;;;26.80;99.90;;;;;;5070437;28;20473;-76
2023/07/23 09:51:33;;;;;;;5.50;4.40;;;26.90;99.90;;;;;;5090245;28;20089;-76
2023/07/23 09:54:03;;;;;;;5.78;4.95;;;26.90;99.90;;;;;;5088718;28;20096;-76
2023/07/23 09:56:32;;;;;;;5.22;4.70;;;27.00;99.90;;;;;;5089055;28;20069;-76
2023/07/23 09:58:59;;;;;;;6.43;4.75;;;27.00;99.90;;;;;;5067159;28;20386;-76
2023/07/23 10:01:25;;;;;;;6.32;4.85;;;27.00;99.90;;;;;;5080692;28;20017;-76
2023/07/23 10:03:53;;;;;;;5.93;5.30;;;27.10;99.90;;;;;;5083375;28;20048;-76
2023/07/23 10:06:23;;;;;;;9.65;4.93;;;27.20;99.90;;;;;;5065133;28;20442;-76
2023/07/23 10:08:50;;;;;;;7.18;4.72;;;27.20;99.90;;;;;;5080213;28;20013;-76
2023/07/23 10:11:17;;;;;;;5.28;4.60;;;27.20;99.90;;;;;;5082527;28;20031;-76
2023/07/23 10:13:44;;;;;;;6.68;4.93;;;27.20;99.90;;;;;;5079829;28;20027;-76
2023/07/23 10:16:22;;;;;;;5.90;4.78;;;27.30;99.90;;;;;;5085060;28;20031;-76
2023/07/23 10:18:50;;;;;;;8.23;4.90;;;27.40;99.90;;;;;;5078240;28;20017;-76
2023/07/23 10:21:18;;;;;;;8.35;5.00;;;27.30;99.90;;;;;;5080602;28;20040;-76
2023/07/23 10:23:55;;;;;;;7.13;5.05;;;27.40;99.90;;;;;;5069696;28;20021;-76
2023/07/23 10:26:28;;;;;;;5.95;4.65;;;27.50;99.90;;;;;;5060773;28;20056;-76
2023/07/23 10:29:07;;;;;;;7.47;4.85;;;27.60;99.90;;;;;;5080925;28;20535;-76
2023/07/23 10:31:33;;;;;;;5.88;4.75;;;27.70;99.90;;;;;;5084711;28;20030;-76
2023/07/23 10:33:59;;;;;;;6.63;4.97;;;27.70;99.90;;;;;;5091822;28;20093;-76
2023/07/23 10:36:25;;;;;;;5.47;4.20;;;27.70;99.90;;;;;;5091671;28;20028;-76
2023/07/23 10:39:03;;;;;;;4.78;4.35;;;27.90;99.90;;;;;;5073995;28;20027;-76
2023/07/23 10:41:55;;;;;;;10.73;4.70;;;28.00;99.90;;;;;;5091571;28;20481;-76
2023/07/23 10:44:23;;;;;;;7.00;5.90;;;28.00;99.90;;;;;;5081212;28;20397;-76
2023/07/23 10:46:49;;;;;;;6.45;5.28;;;27.90;99.90;;;;;;5076008;28;20073;-76
2023/07/23 10:49:21;;;;;;;5.57;4.97;;;27.80;99.90;;;;;;5076833;28;20529;-76
2023/07/23 10:51:50;;;;;;;6.25;5.35;;;27.90;99.90;;;;;;5090245;28;20017;-76
2023/07/23 10:54:17;;;;;;;5.82;4.85;;;28.20;99.90;;;;;;5092039;28;20402;-76
2023/07/23 10:56:43;;;;;;;7.07;5.18;;;28.30;99.90;;;;;;5096722;28;20019;-76
2023/07/23 10:59:21;;;;;;;12.55;6.15;;;28.20;99.90;;;;;;5096246;28;20108;-76
2023/07/23 11:01:50;;;;;;;6.22;5.38;;;28.10;99.90;;;;;;5077707;28;20055;-76
2023/07/23 11:04:18;;;;;;;9.70;5.82;;;28.20;99.90;;;;;;5077366;28;20085;-76
2023/07/23 11:07:06;;;;;;;6.75;5.22;;;28.40;99.90;;;;;;5096223;28;20530;-76
2023/07/23 11:09:37;;;;;;;9.25;6.05;;;28.50;99.90;;;;;;5077114;28;20393;-77
2023/07/23 11:12:05;;;;;;;7.15;5.13;;;28.60;99.90;;;;;;5095951;28;20028;-76
2023/07/23 11:14:32;;;;;;;6.13;5.53;;;28.70;99.90;;;;;;5095306;28;20082;-76
2023/07/23 11:17:03;;;;;;;8.18;5.70;;;28.80;99.90;;;;;;5102956;28;20106;-76
2023/07/23 11:19:31;;;;;;;6.63;5.95;;;28.80;99.90;;;;;;5103826;28;20020;-76
2023/07/23 11:22:01;;;;;;;6.40;5.60;;;28.80;99.90;;;;;;5095626;28;20058;-76
2023/07/23 11:24:28;;;;;;;8.13;6.05;;;28.90;99.90;;;;;;5077468;28;20079;-76
2023/07/23 11:27:02;;;;;;;7.88;5.57;;;28.80;99.90;;;;;;5091537;28;20185;-76
2023/07/23 11:29:29;;;;;;;7.30;5.03;;;28.70;99.90;;;;;;5069013;28;20635;-76
2023/07/23 11:31:55;;;;;;;7.97;6.10;;;28.90;99.90;;;;;;5091359;28;20099;-76
2023/07/23 11:34:23;;;;;;;9.50;5.82;;;28.80;99.90;;;;;;5085763;28;20028;-76
2023/07/23 11:36:52;;;;;;;10.77;5.60;;;28.70;99.90;;;;;;5085869;28;20130;-76
2023/07/23 11:39:19;;;;;;;5.47;4.97;;;28.90;99.90;;;;;;5093823;28;20020;-76
2023/07/23 11:41:45;;;;;;;8.63;5.65;;;29.00;99.90;;;;;;5091405;28;20042;-76
2023/07/23 11:44:11;;;;;;;6.25;5.38;;;29.10;99.90;;;;;;5091960;28;20029;-76
2023/07/23 11:46:41;;;;;;;6.15;5.55;;;29.10;99.90;;;;;;5093767;28;20489;-76
2023/07/23 11:49:09;;;;;;;7.63;6.05;;;29.10;99.90;;;;;;5062502;28;20109;-76
2023/07/23 11:51:37;;;;;;;7.03;5.68;;;29.30;99.90;;;;;;5083902;28;20029;-76
2023/07/23 11:54:08;;;;;;;9.90;5.57;;;29.30;99.90;;;;;;5087808;28;20032;-76
2023/07/23 11:56:41;;;;;;;7.22;5.25;;;29.50;99.90;;;;;;5087110;28;20074;-76
2023/07/23 11:59:09;;;;;;;6.75;5.25;;;29.60;99.90;;;;;;5086468;28;20042;-75
2023/07/23 12:01:36;;;;;;;5.75;5.22;;;29.60;99.90;;;;;;5083034;28;20036;-76
2023/07/23 12:04:03;;;;;;;6.32;5.53;;;29.60;99.90;;;;;;5089369;28;20062;-76
2023/07/23 12:06:31;;;;;;;9.57;6.13;;;29.70;99.90;;;;;;5086164;28;20497;-76
2023/07/23 12:08:57;;;;;;;7.35;5.53;;;29.70;99.90;;;;;;5085753;28;20033;-76
2023/07/23 12:11:25;;;;;;;8.15;5.93;;;29.90;99.90;;;;;;5090699;28;20024;-76
2023/07/23 12:13:53;;;;;;;5.93;5.30;;;30.00;99.90;;;;;;5086138;28;20028;-76
2023/07/23 12:16:37;;;;;;;6.05;5.45;;;30.00;99.90;;;;;;5086788;28;20167;-76
2023/07/23 12:19:04;;;;;;;6.00;5.40;;;30.10;99.90;;;;;;5083957;28;20073;-76
2023/07/23 12:21:37;;;;;;;6.85;5.30;;;30.10;99.90;;;;;;5083738;28;20028;-76
2023/07/23 12:24:26;;;;;;;10.15;5.78;;;30.20;99.90;;;;;;5082927;28;20020;-76
2023/07/23 12:26:54;;;;;;;7.50;5.22;;;30.20;99.90;;;;;;5086793;28;20134;-76
2023/07/23 12:29:21;;;;;;;6.22;5.63;;;30.30;99.90;;;;;;5080119;28;20115;-76
2023/07/23 12:31:48;;;;;;;9.50;5.93;;;30.30;99.90;;;;;;5072246;28;20518;-76
2023/07/23 12:34:15;;;;;;;7.38;6.15;;;30.40;99.90;;;;;;5090983;28;20067;-76
2023/07/23 12:36:42;;;;;;;7.22;5.13;;;30.40;99.90;;;;;;5081460;28;20020;-76
2023/07/23 12:39:12;;;;;;;6.40;5.75;;;30.40;99.90;;;;;;5067395;28;20042;-76
2023/07/23 12:41:38;;;;;;;7.47;5.18;;;30.60;99.90;;;;;;5082042;28;20016;-76
2023/07/23 12:44:04;;;;;;;6.45;5.15;;;30.70;99.90;;;;;;5079222;28;20499;-76
2023/07/23 12:46:30;;;;;;;6.18;5.40;;;30.80;99.90;;;;;;5078813;28;20076;-76